sensor_id;sensor_type;location;lat;lon;timestamp;pressure;altitude;pressure_sealevel;temperature;humidity
61908;BME280;47864;52.526;19.672;2023-12-22T00:01:20;150367.00;;;5.42;100.00
61908;BME280;47864;52.526;19.672;2023-12-22T00:03:21;150353.13;;;5.36;100.00
61908;BME280;47864;52.526;19.672;2023-12-22T00:05:23;150354.38;;;5.36;100.00
61908;BME280;47864;52.526;19.672;2023-12-22T00:07:25;150380.84;;;5.47;100.00
61908;BME280;47864;52.526;19.672;2023-12-22T00:09:26;150364.47;;;5.41;100.00
61908;BME280;47864;52.526;19.672;2023-12-22T00:11:28;150338.03;;;5.30;100.00
61908;BME280;47864;52.526;19.672;2023-12-22T00:13:29;150331.72;;;5.27;100.00
61908;BME280;47864;52.526;19.672;2023-12-22T00:15:34;150339.28;;;5.30;100.00
61908;BME280;47864;52.526;19.672;2023-12-22T00:17:36;150295.22;;;5.13;100.00
61908;BME280;47864;52.526;19.672;2023-12-22T00:19:37;150338.03;;;5.30;100.00
61908;BME280;47864;52.526;19.672;2023-12-22T00:21:39;150322.94;;;5.24;100.00
61908;BME280;47864;52.526;19.672;2023-12-22T00:23:40;150345.59;;;5.33;100.00
61908;BME280;47864;52.526;19.672;2023-12-22T00:25:42;150339.28;;;5.30;100.00
61908;BME280;47864;52.526;19.672;2023-12-22T00:27:43;150339.28;;;5.30;100.00
61908;BME280;47864;52.526;19.672;2023-12-22T00:29:45;150332.97;;;5.28;100.00
61908;BME280;47864;52.526;19.672;2023-12-22T00:31:47;150330.50;;;5.27;100.00
61908;BME280;47864;52.526;19.672;2023-12-22T00:33:49;150329.25;;;5.26;100.00
61908;BME280;47864;52.526;19.672;2023-12-22T00:35:50;150311.59;;;5.19;100.00
61908;BME280;47864;52.526;19.672;2023-12-22T00:37:52;150350.66;;;5.35;100.00
61908;BME280;47864;52.526;19.672;2023-12-22T00:39:54;150314.09;;;5.20;100.00
61908;BME280;47864;52.526;19.672;2023-12-22T00:41:58;150330.50;;;5.27;100.00
61908;BME280;47864;52.526;19.672;2023-12-22T00:44:00;150351.88;;;5.35;100.00
61908;BME280;47864;52.526;19.672;2023-12-22T00:46:01;150378.31;;;5.46;100.00
61908;BME280;47864;52.526;19.672;2023-12-22T00:48:03;150341.81;;;5.31;100.00
61908;BME280;47864;52.526;19.672;2023-12-22T00:50:05;150370.78;;;5.43;100.00
61908;BME280;47864;52.526;19.672;2023-12-22T00:52:07;150306.59;;;5.17;100.00
61908;BME280;47864;52.526;19.672;2023-12-22T00:54:08;150312.84;;;5.20;100.00
61908;BME280;47864;52.526;19.672;2023-12-22T00:56:10;150277.63;;;5.06;100.00
61908;BME280;47864;52.526;19.672;2023-12-22T00:58:11;150324.19;;;5.24;100.00
61908;BME280;47864;52.526;19.672;2023-12-22T01:00:13;150320.41;;;5.23;100.00
61908;BME280;47864;52.526;19.672;2023-12-22T01:02:15;150332.97;;;5.28;100.00
61908;BME280;47864;52.526;19.672;2023-12-22T01:04:17;150340.56;;;5.31;100.00
61908;BME280;47864;52.526;19.672;2023-12-22T01:06:18;150330.50;;;5.27;100.00
61908;BME280;47864;52.526;19.672;2023-12-22T01:08:24;150343.06;;;5.32;100.00
61908;BME280;47864;52.526;19.672;2023-12-22T01:10:25;150382.09;;;5.48;100.00
61908;BME280;47864;52.526;19.672;2023-12-22T01:12:28;150327.97;;;5.26;100.00
61908;BME280;47864;52.526;19.672;2023-12-22T01:14:30;150380.84;;;5.47;100.00
61908;BME280;47864;52.526;19.672;2023-12-22T01:16:32;150400.97;;;5.55;100.00
61908;BME280;47864;52.526;19.672;2023-12-22T01:18:34;150390.94;;;5.51;100.00
61908;BME280;47864;52.526;19.672;2023-12-22T01:20:36;150385.88;;;5.49;100.00
61908;BME280;47864;52.526;19.672;2023-12-22T01:22:37;150365.75;;;5.41;100.00
61908;BME280;47864;52.526;19.672;2023-12-22T01:24:39;150368.28;;;5.42;100.00
61908;BME280;47864;52.526;19.672;2023-12-22T01:26:41;150392.19;;;5.52;100.00
61908;BME280;47864;52.526;19.672;2023-12-22T01:28:42;150411.06;;;5.59;100.00
61908;BME280;47864;52.526;19.672;2023-12-22T01:30:44;150390.94;;;5.51;100.00
61908;BME280;47864;52.526;19.672;2023-12-22T01:32:45;150398.47;;;5.54;100.00
61908;BME280;47864;52.526;19.672;2023-12-22T01:34:47;150408.56;;;5.58;100.00
61908;BME280;47864;52.526;19.672;2023-12-22T01:36:48;150431.22;;;5.67;100.00
61908;BME280;47864;52.526;19.672;2023-12-22T01:38:50;150429.97;;;5.67;100.00
61908;BME280;47864;52.526;19.672;2023-12-22T01:40:51;150434.97;;;5.69;100.00
61908;BME280;47864;52.526;19.672;2023-12-22T01:42:54;150406.03;;;5.57;100.00
61908;BME280;47864;52.526;19.672;2023-12-22T01:44:55;150397.19;;;5.54;100.00
61908;BME280;47864;52.526;19.672;2023-12-22T01:46:57;150421.13;;;5.63;100.00
61908;BME280;47864;52.526;19.672;2023-12-22T01:49:00;150379.56;;;5.47;100.00
61908;BME280;47864;52.526;19.672;2023-12-22T01:51:02;150394.66;;;5.53;100.00
61908;BME280;47864;52.526;19.672;2023-12-22T01:53:05;150400.97;;;5.55;100.00
61908;BME280;47864;52.526;19.672;2023-12-22T01:55:07;150355.66;;;5.37;100.00
61908;BME280;47864;52.526;19.672;2023-12-22T01:57:13;150322.94;;;5.24;100.00
61908;BME280;47864;52.526;19.672;2023-12-22T01:59:17;150302.78;;;5.16;100.00
61908;BME280;47864;52.526;19.672;2023-12-22T02:01:19;150299.00;;;5.14;100.00
61908;BME280;47864;52.526;19.672;2023-12-22T02:03:22;150282.66;;;5.08;100.00
61908;BME280;47864;52.526;19.672;2023-12-22T02:05:24;150265.03;;;5.01;100.00
61908;BME280;47864;52.526;19.672;2023-12-22T02:07:26;150243.66;;;4.92;100.00
61908;BME280;47864;52.526;19.672;2023-12-22T02:09:28;150247.44;;;4.93;100.00
61908;BME280;47864;52.526;19.672;2023-12-22T02:11:30;150248.69;;;4.94;100.00
61908;BME280;47864;52.526;19.672;2023-12-22T02:13:31;150217.22;;;4.81;100.00
61908;BME280;47864;52.526;19.672;2023-12-22T02:15:33;150232.28;;;4.87;100.00
61908;BME280;47864;52.526;19.672;2023-12-22T02:17:43;150208.38;;;4.78;100.00
61908;BME280;47864;52.526;19.672;2023-12-22T02:19:47;150226.03;;;4.85;100.00
61908;BME280;47864;52.526;19.672;2023-12-22T02:22:02;150200.84;;;4.75;100.00
61908;BME280;47864;52.526;19.672;2023-12-22T02:24:08;150205.91;;;4.77;100.00
61908;BME280;47864;52.526;19.672;2023-12-22T02:26:25;150171.91;;;4.63;100.00
61908;BME280;47864;52.526;19.672;2023-12-22T02:28:29;150178.22;;;4.66;100.00
61908;BME280;47864;52.526;19.672;2023-12-22T02:31:06;150164.38;;;4.60;100.00
61908;BME280;47864;52.526;19.672;2023-12-22T02:33:12;150150.50;;;4.54;100.00
61908;BME280;47864;52.526;19.672;2023-12-22T02:35:19;150209.63;;;4.78;100.00
61908;BME280;47864;52.526;19.672;2023-12-22T02:37:22;150204.66;;;4.76;100.00
61908;BME280;47864;52.526;19.672;2023-12-22T02:39:25;150193.28;;;4.72;100.00
61908;BME280;47864;52.526;19.672;2023-12-22T02:41:27;150174.41;;;4.64;100.00
61908;BME280;47864;52.526;19.672;2023-12-22T02:43:28;150189.50;;;4.70;100.00
61908;BME280;47864;52.526;19.672;2023-12-22T02:45:30;150169.38;;;4.62;100.00
61908;BME280;47864;52.526;19.672;2023-12-22T02:47:32;150137.94;;;4.49;100.00
61908;BME280;47864;52.526;19.672;2023-12-22T02:49:34;150169.38;;;4.62;100.00
61908;BME280;47864;52.526;19.672;2023-12-22T02:51:35;150222.25;;;4.83;100.00
61908;BME280;47864;52.526;19.672;2023-12-22T02:53:37;150179.47;;;4.66;100.00
61908;BME280;47864;52.526;19.672;2023-12-22T02:55:38;150169.38;;;4.62;100.00
61908;BME280;47864;52.526;19.672;2023-12-22T02:57:40;150202.13;;;4.75;100.00
61908;BME280;47864;52.526;19.672;2023-12-22T02:59:42;150179.47;;;4.66;100.00
61908;BME280;47864;52.526;19.672;2023-12-22T03:01:43;150176.94;;;4.65;100.00
61908;BME280;47864;52.526;19.672;2023-12-22T03:03:45;150242.38;;;4.91;100.00
61908;BME280;47864;52.526;19.672;2023-12-22T03:05:46;150231.03;;;4.87;100.00
61908;BME280;47864;52.526;19.672;2023-12-22T03:07:48;150205.91;;;4.77;100.00
61908;BME280;47864;52.526;19.672;2023-12-22T03:09:50;150242.38;;;4.91;100.00
61908;BME280;47864;52.526;19.672;2023-12-22T03:11:52;150295.22;;;5.13;100.00
61908;BME280;47864;52.526;19.672;2023-12-22T03:13:54;150288.97;;;5.10;100.00
61908;BME280;47864;52.526;19.672;2023-12-22T03:15:55;150270.03;;;5.03;100.00
61908;BME280;47864;52.526;19.672;2023-12-22T03:17:57;150276.34;;;5.05;100.00
61908;BME280;47864;52.526;19.672;2023-12-22T03:19:58;150309.09;;;5.18;100.00
61908;BME280;47864;52.526;19.672;2023-12-22T03:22:00;150306.59;;;5.17;100.00
61908;BME280;47864;52.526;19.672;2023-12-22T03:24:02;150293.97;;;5.12;100.00
61908;BME280;47864;52.526;19.672;2023-12-22T03:26:04;150302.78;;;5.16;100.00
61908;BME280;47864;52.526;19.672;2023-12-22T03:28:05;150291.44;;;5.11;100.00
61908;BME280;47864;52.526;19.672;2023-12-22T03:30:07;150316.63;;;5.21;100.00
61908;BME280;47864;52.526;19.672;2023-12-22T03:32:09;150297.75;;;5.14;100.00
61908;BME280;47864;52.526;19.672;2023-12-22T03:34:11;150297.75;;;5.14;100.00
61908;BME280;47864;52.526;19.672;2023-12-22T03:36:13;150300.28;;;5.15;100.00
61908;BME280;47864;52.526;19.672;2023-12-22T03:38:14;150287.72;;;5.10;100.00
61908;BME280;47864;52.526;19.672;2023-12-22T03:40:16;150275.09;;;5.05;100.00
61908;BME280;47864;52.526;19.672;2023-12-22T03:42:17;150273.84;;;5.04;100.00
61908;BME280;47864;52.526;19.672;2023-12-22T03:44:19;150262.53;;;5.00;100.00
61908;BME280;47864;52.526;19.672;2023-12-22T03:46:24;150232.28;;;4.87;100.00
61908;BME280;47864;52.526;19.672;2023-12-22T03:48:26;150242.38;;;4.91;100.00
61908;BME280;47864;52.526;19.672;2023-12-22T03:50:28;150227.31;;;4.85;100.00
61908;BME280;47864;52.526;19.672;2023-12-22T03:52:29;150232.28;;;4.87;100.00
61908;BME280;47864;52.526;19.672;2023-12-22T03:54:31;150285.19;;;5.09;100.00
61908;BME280;47864;52.526;19.672;2023-12-22T03:56:32;150248.69;;;4.94;100.00
61908;BME280;47864;52.526;19.672;2023-12-22T03:58:34;150243.66;;;4.92;100.00
61908;BME280;47864;52.526;19.672;2023-12-22T04:00:36;150213.44;;;4.80;100.00
61908;BME280;47864;52.526;19.672;2023-12-22T04:02:38;150207.16;;;4.77;100.00
61908;BME280;47864;52.526;19.672;2023-12-22T04:04:39;150212.16;;;4.79;100.00
61908;BME280;47864;52.526;19.672;2023-12-22T04:06:41;150222.25;;;4.83;100.00
61908;BME280;47864;52.526;19.672;2023-12-22T04:08:43;150213.44;;;4.80;100.00
61908;BME280;47864;52.526;19.672;2023-12-22T04:10:44;150237.34;;;4.89;100.00
61908;BME280;47864;52.526;19.672;2023-12-22T04:12:46;150233.56;;;4.88;100.00
61908;BME280;47864;52.526;19.672;2023-12-22T04:14:48;150244.91;;;4.92;100.00
61908;BME280;47864;52.526;19.672;2023-12-22T04:16:49;150222.25;;;4.83;100.00
61908;BME280;47864;52.526;19.672;2023-12-22T04:18:51;150168.13;;;4.62;100.00
61908;BME280;47864;52.526;19.672;2023-12-22T04:20:52;150184.50;;;4.68;100.00
61908;BME280;47864;52.526;19.672;2023-12-22T04:22:54;150174.41;;;4.64;100.00
61908;BME280;47864;52.526;19.672;2023-12-22T04:24:56;150197.06;;;4.73;100.00
61908;BME280;47864;52.526;19.672;2023-12-22T04:26:57;150179.47;;;4.66;100.00
61908;BME280;47864;52.526;19.672;2023-12-22T04:28:59;150193.28;;;4.72;100.00
61908;BME280;47864;52.526;19.672;2023-12-22T04:31:00;150179.47;;;4.66;100.00
61908;BME280;47864;52.526;19.672;2023-12-22T04:33:02;150139.22;;;4.50;100.00
61908;BME280;47864;52.526;19.672;2023-12-22T04:35:04;150163.13;;;4.59;100.00
61908;BME280;47864;52.526;19.672;2023-12-22T04:37:06;150184.50;;;4.68;100.00
61908;BME280;47864;52.526;19.672;2023-12-22T04:39:07;150182.00;;;4.67;100.00
61908;BME280;47864;52.526;19.672;2023-12-22T04:41:09;150111.50;;;4.39;100.00
61908;BME280;47864;52.526;19.672;2023-12-22T04:43:11;150149.25;;;4.54;100.00
61908;BME280;47864;52.526;19.672;2023-12-22T04:45:12;150151.78;;;4.55;100.00
61908;BME280;47864;52.526;19.672;2023-12-22T04:47:14;150159.34;;;4.58;100.00
61908;BME280;47864;52.526;19.672;2023-12-22T04:49:16;150161.84;;;4.59;100.00
61908;BME280;47864;52.526;19.672;2023-12-22T04:51:18;150184.50;;;4.68;100.00
61908;BME280;47864;52.526;19.672;2023-12-22T04:53:19;150193.28;;;4.72;100.00
61908;BME280;47864;52.526;19.672;2023-12-22T04:55:21;150178.22;;;4.66;100.00
61908;BME280;47864;52.526;19.672;2023-12-22T04:57:22;150082.63;;;4.27;100.00
61908;BME280;47864;52.526;19.672;2023-12-22T04:59:24;150188.25;;;4.70;100.00
61908;BME280;47864;52.526;19.672;2023-12-22T05:01:25;150154.28;;;4.56;100.00
61908;BME280;47864;52.526;19.672;2023-12-22T05:03:27;150147.97;;;4.53;100.00
61908;BME280;47864;52.526;19.672;2023-12-22T05:05:31;150158.06;;;4.57;100.00
61908;BME280;47864;52.526;19.672;2023-12-22T05:07:34;150119.06;;;4.42;100.00
61908;BME280;47864;52.526;19.672;2023-12-22T05:09:35;150143.00;;;4.51;100.00
61908;BME280;47864;52.526;19.672;2023-12-22T05:11:37;150179.47;;;4.66;100.00
61908;BME280;47864;52.526;19.672;2023-12-22T05:13:39;150204.66;;;4.76;100.00
61908;BME280;47864;52.526;19.672;2023-12-22T05:15:40;150173.16;;;4.64;100.00
61908;BME280;47864;52.526;19.672;2023-12-22T05:17:42;150202.13;;;4.75;100.00
61908;BME280;47864;52.526;19.672;2023-12-22T05:19:43;150160.59;;;4.58;100.00
61908;BME280;47864;52.526;19.672;2023-12-22T05:21:45;150173.16;;;4.64;100.00
61908;BME280;47864;52.526;19.672;2023-12-22T05:23:46;150215.94;;;4.81;100.00
61908;BME280;47864;52.526;19.672;2023-12-22T05:25:48;150238.59;;;4.90;99.91
61908;BME280;47864;52.526;19.672;2023-12-22T05:27:50;150129.13;;;4.46;95.14
61908;BME280;47864;52.526;19.672;2023-12-22T05:29:51;150247.44;;;4.93;94.15
61908;BME280;47864;52.526;19.672;2023-12-22T05:31:53;150236.09;;;4.89;91.65
61908;BME280;47864;52.526;19.672;2023-12-22T05:33:55;150180.72;;;4.67;88.96
61908;BME280;47864;52.526;19.672;2023-12-22T05:35:56;150236.09;;;4.89;92.32
61908;BME280;47864;52.526;19.672;2023-12-22T05:37:58;150194.56;;;4.72;88.30
61908;BME280;47864;52.526;19.672;2023-12-22T05:40:00;150249.91;;;4.94;87.52
61908;BME280;47864;52.526;19.672;2023-12-22T05:42:01;150248.69;;;4.94;86.36
61908;BME280;47864;52.526;19.672;2023-12-22T05:44:06;150213.44;;;4.80;85.36
61908;BME280;47864;52.526;19.672;2023-12-22T05:46:08;150190.78;;;4.71;82.18
61908;BME280;47864;52.526;19.672;2023-12-22T05:48:10;150232.28;;;4.87;85.34
61908;BME280;47864;52.526;19.672;2023-12-22T05:50:12;150228.50;;;4.86;80.63
61908;BME280;47864;52.526;19.672;2023-12-22T05:52:14;150238.59;;;4.90;79.56
61908;BME280;47864;52.526;19.672;2023-12-22T05:54:15;150231.03;;;4.87;78.41
61908;BME280;47864;52.526;19.672;2023-12-22T05:56:18;150246.16;;;4.93;80.15
61908;BME280;47864;52.526;19.672;2023-12-22T05:58:20;150184.50;;;4.68;76.83
61908;BME280;47864;52.526;19.672;2023-12-22T06:00:22;150217.22;;;4.81;77.83
61908;BME280;47864;52.526;19.672;2023-12-22T06:02:25;150222.25;;;4.83;77.51
61908;BME280;47864;52.526;19.672;2023-12-22T06:04:27;150202.13;;;4.75;78.46
61908;BME280;47864;52.526;19.672;2023-12-22T06:06:28;150257.47;;;4.97;77.31
61908;BME280;47864;52.526;19.672;2023-12-22T06:08:30;150212.16;;;4.79;76.05
61908;BME280;47864;52.526;19.672;2023-12-22T06:10:31;150234.81;;;4.88;77.16
61908;BME280;47864;52.526;19.672;2023-12-22T06:12:33;150242.38;;;4.91;76.62
61908;BME280;47864;52.526;19.672;2023-12-22T06:14:35;150233.56;;;4.88;75.55
61908;BME280;47864;52.526;19.672;2023-12-22T06:16:36;150209.63;;;4.78;78.26
61908;BME280;47864;52.526;19.672;2023-12-22T06:18:38;150200.84;;;4.75;75.65
61908;BME280;47864;52.526;19.672;2023-12-22T06:20:40;150215.94;;;4.81;75.69
61908;BME280;47864;52.526;19.672;2023-12-22T06:22:42;150217.22;;;4.81;76.05
61908;BME280;47864;52.526;19.672;2023-12-22T06:24:43;150212.16;;;4.79;76.30
61908;BME280;47864;52.526;19.672;2023-12-22T06:26:45;150224.78;;;4.84;78.69
61908;BME280;47864;52.526;19.672;2023-12-22T06:28:46;150158.06;;;4.57;75.10
61908;BME280;47864;52.526;19.672;2023-12-22T06:30:48;150187.03;;;4.69;76.68
61908;BME280;47864;52.526;19.672;2023-12-22T06:32:49;150182.00;;;4.67;77.33
61908;BME280;47864;52.526;19.672;2023-12-22T06:34:51;150182.00;;;4.67;75.45
61908;BME280;47864;52.526;19.672;2023-12-22T06:36:52;150150.50;;;4.54;77.24
61908;BME280;47864;52.526;19.672;2023-12-22T06:38:54;150130.38;;;4.46;77.93
61908;BME280;47864;52.526;19.672;2023-12-22T06:40:56;150043.63;;;4.11;80.73
61908;BME280;47864;52.526;19.672;2023-12-22T06:42:57;150044.84;;;4.12;81.35
61908;BME280;47864;52.526;19.672;2023-12-22T06:44:59;150047.38;;;4.13;78.15
61908;BME280;47864;52.526;19.672;2023-12-22T06:47:01;150010.91;;;3.98;76.88
61908;BME280;47864;52.526;19.672;2023-12-22T06:49:02;150063.75;;;4.19;76.82
61908;BME280;47864;52.526;19.672;2023-12-22T06:51:07;150056.19;;;4.16;78.54
61908;BME280;47864;52.526;19.672;2023-12-22T06:53:08;150042.38;;;4.11;76.71
61908;BME280;47864;52.526;19.672;2023-12-22T06:55:22;150059.97;;;4.18;77.47
61908;BME280;47864;52.526;19.672;2023-12-22T06:57:23;150054.91;;;4.16;77.66
61908;BME280;47864;52.526;19.672;2023-12-22T06:59:27;150028.50;;;4.05;77.74
61908;BME280;47864;52.526;19.672;2023-12-22T07:01:32;150029.75;;;4.06;77.15
61908;BME280;47864;52.526;19.672;2023-12-22T07:03:34;150028.50;;;4.05;77.21
61908;BME280;47864;52.526;19.672;2023-12-22T07:05:35;150042.38;;;4.11;75.27
61908;BME280;47864;52.526;19.672;2023-12-22T07:07:37;150010.91;;;3.98;74.22
61908;BME280;47864;52.526;19.672;2023-12-22T07:09:39;150041.09;;;4.10;75.85
61908;BME280;47864;52.526;19.672;2023-12-22T07:11:41;150051.13;;;4.14;76.17
61908;BME280;47864;52.526;19.672;2023-12-22T07:13:43;149989.53;;;3.90;76.12
61908;BME280;47864;52.526;19.672;2023-12-22T07:15:45;149958.09;;;3.77;76.58
61908;BME280;47864;52.526;19.672;2023-12-22T07:17:46;149982.00;;;3.87;75.46
61908;BME280;47864;52.526;19.672;2023-12-22T07:19:48;150031.03;;;4.06;76.43
61908;BME280;47864;52.526;19.672;2023-12-22T07:21:50;150013.41;;;3.99;74.73
61908;BME280;47864;52.526;19.672;2023-12-22T07:23:52;149999.59;;;3.94;73.74
61908;BME280;47864;52.526;19.672;2023-12-22T07:25:53;150034.81;;;4.08;75.46
61908;BME280;47864;52.526;19.672;2023-12-22T07:27:55;149969.41;;;3.81;73.70
61908;BME280;47864;52.526;19.672;2023-12-22T07:29:56;150031.03;;;4.06;74.16
61908;BME280;47864;52.526;19.672;2023-12-22T07:31:58;149999.59;;;3.94;74.87
61908;BME280;47864;52.526;19.672;2023-12-22T07:34:01;150032.28;;;4.07;75.72
61908;BME280;47864;52.526;19.672;2023-12-22T07:36:03;149983.22;;;3.87;73.84
61908;BME280;47864;52.526;19.672;2023-12-22T07:38:06;150049.88;;;4.14;75.47
61908;BME280;47864;52.526;19.672;2023-12-22T07:40:09;150075.03;;;4.24;74.89
61908;BME280;47864;52.526;19.672;2023-12-22T07:42:10;150049.88;;;4.14;74.60
61908;BME280;47864;52.526;19.672;2023-12-22T07:44:12;150057.44;;;4.17;74.30
61908;BME280;47864;52.526;19.672;2023-12-22T07:46:17;150036.06;;;4.08;75.69
61908;BME280;47864;52.526;19.672;2023-12-22T07:48:19;150098.94;;;4.34;76.15
61908;BME280;47864;52.526;19.672;2023-12-22T07:50:21;150046.09;;;4.12;77.51
61908;BME280;47864;52.526;19.672;2023-12-22T07:52:22;150042.38;;;4.11;78.53
61908;BME280;47864;52.526;19.672;2023-12-22T07:54:24;150009.63;;;3.98;80.25
61908;BME280;47864;52.526;19.672;2023-12-22T07:56:26;150072.53;;;4.23;81.70
61908;BME280;47864;52.526;19.672;2023-12-22T07:58:28;150071.25;;;4.22;82.79
61908;BME280;47864;52.526;19.672;2023-12-22T08:00:29;150077.56;;;4.25;83.74
61908;BME280;47864;52.526;19.672;2023-12-22T08:02:31;150105.25;;;4.36;83.79
61908;BME280;47864;52.526;19.672;2023-12-22T08:04:32;150093.91;;;4.32;83.71
61908;BME280;47864;52.526;19.672;2023-12-22T08:06:35;150082.63;;;4.27;85.44
61908;BME280;47864;52.526;19.672;2023-12-22T08:08:38;150075.03;;;4.24;87.27
61908;BME280;47864;52.526;19.672;2023-12-22T08:10:39;150070.00;;;4.22;87.28
61908;BME280;47864;52.526;19.672;2023-12-22T08:12:41;150078.81;;;4.26;87.94
61908;BME280;47864;52.526;19.672;2023-12-22T08:14:43;150064.97;;;4.20;88.20
61908;BME280;47864;52.526;19.672;2023-12-22T08:16:45;150086.34;;;4.29;88.79
61908;BME280;47864;52.526;19.672;2023-12-22T08:18:47;150111.50;;;4.39;88.59
61908;BME280;47864;52.526;19.672;2023-12-22T08:20:48;150078.81;;;4.26;89.93
61908;BME280;47864;52.526;19.672;2023-12-22T08:22:51;150139.22;;;4.50;90.16
61908;BME280;47864;52.526;19.672;2023-12-22T08:24:55;150112.78;;;4.39;89.28
61908;BME280;47864;52.526;19.672;2023-12-22T08:26:56;150085.13;;;4.28;91.51
61908;BME280;47864;52.526;19.672;2023-12-22T08:28:58;150131.63;;;4.47;90.12
61908;BME280;47864;52.526;19.672;2023-12-22T08:31:00;150122.88;;;4.43;90.21
61908;BME280;47864;52.526;19.672;2023-12-22T08:33:02;150136.69;;;4.49;88.66
61908;BME280;47864;52.526;19.672;2023-12-22T08:35:05;150114.03;;;4.40;89.73
61908;BME280;47864;52.526;19.672;2023-12-22T08:37:09;150161.84;;;4.59;89.20
61908;BME280;47864;52.526;19.672;2023-12-22T08:39:11;150204.66;;;4.76;89.77
61908;BME280;47864;52.526;19.672;2023-12-22T08:41:12;150139.22;;;4.50;88.59
61908;BME280;47864;52.526;19.672;2023-12-22T08:43:14;150027.22;;;4.05;95.64
61908;BME280;47864;52.526;19.672;2023-12-22T08:45:17;149950.53;;;3.74;99.68
61908;BME280;47864;52.526;19.672;2023-12-22T08:47:19;149872.63;;;3.42;100.00
61908;BME280;47864;52.526;19.672;2023-12-22T08:49:20;149822.31;;;3.22;100.00
61908;BME280;47864;52.526;19.672;2023-12-22T08:51:22;149828.63;;;3.25;100.00
61908;BME280;47864;52.526;19.672;2023-12-22T08:53:25;149711.78;;;2.78;100.00
61908;BME280;47864;52.526;19.672;2023-12-22T08:55:26;149605.00;;;2.35;100.00
61908;BME280;47864;52.526;19.672;2023-12-22T08:57:28;149563.56;;;2.18;100.00
61908;BME280;47864;52.526;19.672;2023-12-22T08:59:30;149561.03;;;2.17;100.00
61908;BME280;47864;52.526;19.672;2023-12-22T09:01:31;149492.00;;;1.89;100.00
61908;BME280;47864;52.526;19.672;2023-12-22T09:03:33;149465.63;;;1.78;100.00
61908;BME280;47864;52.526;19.672;2023-12-22T09:05:35;149465.63;;;1.78;100.00
61908;BME280;47864;52.526;19.672;2023-12-22T09:07:37;149366.50;;;1.38;100.00
61908;BME280;47864;52.526;19.672;2023-12-22T09:09:38;149489.50;;;1.88;100.00
61908;BME280;47864;52.526;19.672;2023-12-22T09:11:40;149429.25;;;1.64;100.00
61908;BME280;47864;52.526;19.672;2023-12-22T09:13:42;149425.47;;;1.62;100.00
61908;BME280;47864;52.526;19.672;2023-12-22T09:15:43;149422.97;;;1.61;100.00
61908;BME280;47864;52.526;19.672;2023-12-22T09:17:45;149421.69;;;1.61;100.00
61908;BME280;47864;52.526;19.672;2023-12-22T09:19:47;149465.63;;;1.78;100.00
61908;BME280;47864;52.526;19.672;2023-12-22T09:21:48;149502.03;;;1.93;100.00
61908;BME280;47864;52.526;19.672;2023-12-22T09:23:50;149537.16;;;2.07;100.00
61908;BME280;47864;52.526;19.672;2023-12-22T09:25:52;149493.22;;;1.89;100.00
61908;BME280;47864;52.526;19.672;2023-12-22T09:27:53;149513.34;;;1.98;100.00
61908;BME280;47864;52.526;19.672;2023-12-22T09:29:55;149502.03;;;1.93;100.00
61908;BME280;47864;52.526;19.672;2023-12-22T09:31:57;149522.13;;;2.01;100.00
61908;BME280;47864;52.526;19.672;2023-12-22T09:33:58;149520.84;;;2.01;100.00
61908;BME280;47864;52.526;19.672;2023-12-22T09:36:00;149523.38;;;2.02;100.00
61908;BME280;47864;52.526;19.672;2023-12-22T09:38:03;149517.09;;;1.99;100.00
61908;BME280;47864;52.526;19.672;2023-12-22T09:40:05;149611.28;;;2.37;100.00
61908;BME280;47864;52.526;19.672;2023-12-22T09:42:07;149584.91;;;2.26;100.00
61908;BME280;47864;52.526;19.672;2023-12-22T09:44:08;149608.78;;;2.36;100.00
61908;BME280;47864;52.526;19.672;2023-12-22T09:46:10;149591.19;;;2.29;100.00
61908;BME280;47864;52.526;19.672;2023-12-22T09:48:12;149553.53;;;2.14;100.00
61908;BME280;47864;52.526;19.672;2023-12-22T09:50:15;149578.59;;;2.24;100.00
61908;BME280;47864;52.526;19.672;2023-12-22T09:52:17;149637.63;;;2.48;100.00
61908;BME280;47864;52.526;19.672;2023-12-22T09:54:19;149566.06;;;2.19;100.00
61908;BME280;47864;52.526;19.672;2023-12-22T09:56:22;149601.22;;;2.33;100.00
61908;BME280;47864;52.526;19.672;2023-12-22T09:58:24;149591.19;;;2.29;100.00
61908;BME280;47864;52.526;19.672;2023-12-22T10:00:27;149633.91;;;2.46;100.00
61908;BME280;47864;52.526;19.672;2023-12-22T10:02:30;149638.88;;;2.48;100.00
61908;BME280;47864;52.526;19.672;2023-12-22T10:04:33;149643.91;;;2.50;100.00
61908;BME280;47864;52.526;19.672;2023-12-22T10:06:35;149601.22;;;2.33;100.00
61908;BME280;47864;52.526;19.672;2023-12-22T10:08:38;149658.97;;;2.56;100.00
61908;BME280;47864;52.526;19.672;2023-12-22T10:10:41;149686.63;;;2.67;100.00
61908;BME280;47864;52.526;19.672;2023-12-22T10:12:44;149723.06;;;2.82;100.00
61908;BME280;47864;52.526;19.672;2023-12-22T10:14:47;149738.13;;;2.88;100.00
61908;BME280;47864;52.526;19.672;2023-12-22T10:16:49;149806.00;;;3.16;100.00
61908;BME280;47864;52.526;19.672;2023-12-22T10:18:51;149818.59;;;3.21;100.00
61908;BME280;47864;52.526;19.672;2023-12-22T10:20:53;149817.31;;;3.20;100.00
61908;BME280;47864;52.526;19.672;2023-12-22T10:22:54;149872.63;;;3.42;100.00
61908;BME280;47864;52.526;19.672;2023-12-22T10:24:56;149917.88;;;3.61;100.00
61908;BME280;47864;52.526;19.672;2023-12-22T10:26:57;149905.28;;;3.56;100.00
61908;BME280;47864;52.526;19.672;2023-12-22T10:28:59;149925.38;;;3.64;100.00
61908;BME280;47864;52.526;19.672;2023-12-22T10:31:02;149817.31;;;3.20;100.00
61908;BME280;47864;52.526;19.672;2023-12-22T10:33:04;149938.00;;;3.69;100.00